Time;durP1;ratioP1;P1;durP2;ratioP2;P2;SDS_P1;SDS_P2;PMS_P1;PMS_P2;Temp;Humidity;BMP_temperature;BMP_pressure;BME280_temperature;BME280_humidity;BME280_pressure;Samples;Min_cycle;Max_cycle;Signal;HPM_P1;HPM_P2
2023/01/06 00:02:24;;;;;;;9.40;4.00;;;12.90;99.90;;;;;;5055384;28;20678;-60
2023/01/06 00:04:50;;;;;;;7.43;3.73;;;12.80;99.90;;;;;;5055465;28;20324;-59
2023/01/06 00:07:17;;;;;;;6.93;3.80;;;12.80;99.90;;;;;;5055543;28;20248;-60
2023/01/06 00:09:44;;;;;;;7.47;3.63;;;12.70;99.90;;;;;;5055399;28;20210;-59
2023/01/06 00:12:10;;;;;;;6.73;3.50;;;12.60;99.90;;;;;;5055644;28;20232;-59
2023/01/06 00:14:37;;;;;;;7.23;3.77;;;12.50;99.90;;;;;;5055305;28;20230;-60
2023/01/06 00:17:04;;;;;;;9.40;3.30;;;12.50;99.90;;;;;;5055250;28;20260;-59
2023/01/06 00:19:32;;;;;;;4.97;3.00;;;12.50;99.90;;;;;;5055104;28;20697;-59
2023/01/06 00:21:58;;;;;;;8.43;3.50;;;12.50;99.90;;;;;;5055198;28;20213;-59
2023/01/06 00:24:25;;;;;;;5.70;3.03;;;12.50;99.90;;;;;;5056155;28;20221;-59
2023/01/06 00:26:52;;;;;;;6.33;3.10;;;12.50;99.90;;;;;;5056279;28;20202;-60
2023/01/06 00:29:18;;;;;;;5.47;2.87;;;12.50;99.90;;;;;;5054948;28;20209;-60
2023/01/06 00:31:45;;;;;;;4.47;2.67;;;12.50;99.90;;;;;;5054910;28;20263;-60
2023/01/06 00:34:12;;;;;;;5.23;3.30;;;12.40;99.90;;;;;;5054578;28;20233;-60
2023/01/06 00:36:40;;;;;;;6.43;3.03;;;12.40;99.90;;;;;;5054394;28;20670;-60
2023/01/06 00:39:06;;;;;;;7.00;3.40;;;12.40;99.90;;;;;;5054883;28;20212;-60
2023/01/06 00:44:17;;;;;;;6.33;3.47;;;12.30;99.90;;;;;;5054730;28;20274;-59
2023/01/06 00:46:44;;;;;;;7.17;3.47;;;12.20;99.90;;;;;;5054916;28;20210;-60
2023/01/06 00:49:11;;;;;;;5.43;3.27;;;12.10;99.90;;;;;;5054779;28;20213;-59
2023/01/06 00:51:40;;;;;;;4.83;2.90;;;11.90;99.90;;;;;;5054670;28;20206;-59
2023/01/06 00:54:08;;;;;;;6.93;3.23;;;11.90;99.90;;;;;;5054325;28;20635;-59
2023/01/06 00:56:36;;;;;;;8.30;3.07;;;11.90;99.90;;;;;;5055468;28;20583;-59
2023/01/06 00:59:03;;;;;;;6.27;3.17;;;11.90;99.90;;;;;;5054486;28;20260;-59
2023/01/06 01:01:30;;;;;;;7.07;3.40;;;11.90;99.90;;;;;;5053955;28;20205;-60
2023/01/06 01:03:57;;;;;;;5.87;2.90;;;11.90;99.90;;;;;;5054002;28;20221;-59
2023/01/06 01:06:23;;;;;;;7.17;2.90;;;12.00;99.90;;;;;;5054227;28;20228;-59
2023/01/06 01:08:54;;;;;;;5.40;3.10;;;12.00;99.90;;;;;;5054152;28;20214;-59
2023/01/06 01:14:02;;;;;;;5.50;2.77;;;11.90;99.90;;;;;;5053369;28;20224;-59
2023/01/06 01:16:29;;;;;;;4.90;2.87;;;11.80;99.90;;;;;;5054323;28;20249;-59
2023/01/06 01:18:55;;;;;;;4.10;2.23;;;11.60;99.90;;;;;;5053747;28;20677;-59
2023/01/06 01:21:22;;;;;;;5.87;2.90;;;11.50;99.90;;;;;;5053855;28;20210;-59
2023/01/06 01:23:49;;;;;;;4.80;2.80;;;11.40;99.90;;;;;;5053880;28;20226;-59
2023/01/06 01:26:17;;;;;;;3.93;2.60;;;11.20;99.90;;;;;;5053716;28;20684;-59
2023/01/06 01:28:44;;;;;;;4.67;2.63;;;11.20;99.90;;;;;;5053653;28;20210;-59
2023/01/06 01:31:11;;;;;;;3.20;2.53;;;11.20;99.90;;;;;;5053478;28;20670;-59
2023/01/06 01:33:38;;;;;;;4.67;3.40;;;11.30;99.90;;;;;;5054059;28;20236;-59
2023/01/06 01:36:06;;;;;;;5.13;2.80;;;11.40;99.90;;;;;;5053859;28;20225;-59
2023/01/06 01:38:33;;;;;;;6.83;2.57;;;11.50;99.90;;;;;;5054055;28;20209;-59
2023/01/06 01:40:59;;;;;;;3.50;2.13;;;11.50;99.90;;;;;;5053736;28;20212;-59
2023/01/06 01:43:43;;;;;;;3.27;2.30;;;11.60;99.90;;;;;;5053431;28;20692;-59
2023/01/06 01:46:11;;;;;;;4.40;2.37;;;11.60;99.90;;;;;;5054148;28;20201;-59
2023/01/06 01:48:39;;;;;;;5.37;2.80;;;11.70;99.90;;;;;;5053824;28;20232;-59
2023/01/06 01:51:11;;;;;;;5.27;2.50;;;11.60;99.90;;;;;;5054326;28;20296;-59
2023/01/06 01:53:43;;;;;;;6.20;2.83;;;11.40;99.90;;;;;;5054113;28;20237;-59
2023/01/06 01:56:16;;;;;;;7.47;2.80;;;11.40;99.90;;;;;;5053763;28;20229;-59
2023/01/06 01:58:48;;;;;;;3.83;2.33;;;11.20;99.90;;;;;;5053953;28;20216;-59
2023/01/06 02:01:15;;;;;;;7.87;2.80;;;11.10;99.90;;;;;;5053430;28;20209;-59
2023/01/06 02:03:42;;;;;;;4.17;2.50;;;11.00;99.90;;;;;;5053052;28;20229;-60
2023/01/06 02:06:15;;;;;;;5.53;2.60;;;10.90;99.90;;;;;;5053554;28;20683;-59
2023/01/06 02:08:45;;;;;;;4.30;2.63;;;10.80;99.90;;;;;;5053840;28;20210;-59
2023/01/06 02:11:12;;;;;;;4.73;2.50;;;10.80;99.90;;;;;;5053569;28;20216;-59
2023/01/06 02:13:42;;;;;;;6.50;2.90;;;10.70;99.90;;;;;;5053283;28;20611;-58
2023/01/06 02:16:19;;;;;;;3.60;2.37;;;10.80;99.90;;;;;;5051965;28;20233;-59
2023/01/06 02:18:56;;;;;;;3.70;2.50;;;10.90;99.90;;;;;;5053482;28;20699;-58
2023/01/06 02:21:41;;;;;;;5.37;2.57;;;11.00;99.90;;;;;;5053651;28;20205;-58
2023/01/06 02:24:37;;;;;;;2.90;2.27;;;11.10;99.90;;;;;;5053176;28;20233;-58
2023/01/06 02:27:45;;;;;;;5.50;2.57;;;11.10;99.90;;;;;;5053159;28;20263;-58
2023/01/06 02:30:42;;;;;;;3.60;2.10;;;11.00;99.90;;;;;;5047892;28;20201;-58
2023/01/06 02:33:23;;;;;;;6.60;2.40;;;10.80;99.90;;;;;;5052733;28;20216;-58
2023/01/06 02:36:07;;;;;;;2.77;2.23;;;10.90;99.90;;;;;;5053173;28;20237;-58
2023/01/06 02:38:57;;;;;;;5.00;2.43;;;10.90;99.90;;;;;;5052946;28;20213;-58
2023/01/06 02:41:32;;;;;;;4.37;2.27;;;11.00;99.90;;;;;;5052743;28;20673;-59
2023/01/06 02:44:04;;;;;;;4.77;2.40;;;11.00;99.90;;;;;;5052600;28;20260;-58
2023/01/06 02:46:56;;;;;;;5.57;2.73;;;10.90;99.90;;;;;;5052866;28;20205;-59
2023/01/06 02:49:29;;;;;;;4.80;2.27;;;10.90;99.90;;;;;;5052798;28;20264;-59
2023/01/06 02:52:01;;;;;;;3.47;2.67;;;11.00;99.90;;;;;;5052669;28;20209;-58
2023/01/06 02:54:32;;;;;;;2.77;2.40;;;11.00;99.90;;;;;;5052921;28;20229;-59
2023/01/06 02:57:06;;;;;;;3.20;2.27;;;11.10;99.90;;;;;;5052863;28;20701;-58
2023/01/06 02:59:39;;;;;;;4.63;2.27;;;11.10;99.90;;;;;;5052834;28;20201;-59
2023/01/06 03:02:09;;;;;;;2.77;2.10;;;10.90;99.90;;;;;;5052033;28;20205;-58
2023/01/06 03:04:41;;;;;;;3.13;2.40;;;10.80;99.90;;;;;;5052568;28;20230;-59
2023/01/06 03:07:09;;;;;;;3.40;2.37;;;10.80;99.90;;;;;;5052743;28;20202;-58
2023/01/06 03:09:38;;;;;;;4.23;2.23;;;10.90;99.90;;;;;;5052320;28;20206;-58
2023/01/06 03:12:10;;;;;;;3.40;2.27;;;10.90;99.90;;;;;;5052208;28;20216;-58
2023/01/06 03:14:41;;;;;;;5.07;2.40;;;11.00;99.90;;;;;;5052430;28;20228;-58
2023/01/06 03:17:08;;;;;;;6.07;2.47;;;11.00;99.90;;;;;;5052316;28;20669;-58
2023/01/06 03:19:35;;;;;;;5.13;2.20;;;11.00;99.90;;;;;;5052437;28;20210;-58
2023/01/06 03:22:04;;;;;;;4.13;2.33;;;11.00;99.90;;;;;;5052768;28;20205;-58
2023/01/06 03:24:30;;;;;;;2.70;1.90;;;11.00;99.90;;;;;;5052525;28;20236;-58
2023/01/06 03:26:58;;;;;;;3.33;2.10;;;11.10;99.90;;;;;;5052682;28;20202;-58
2023/01/06 03:29:25;;;;;;;4.67;2.30;;;11.10;99.90;;;;;;5056108;28;20590;-58
2023/01/06 03:32:01;;;;;;;4.17;2.13;;;11.10;99.90;;;;;;5056133;28;20224;-59
2023/01/06 03:34:41;;;;;;;4.67;2.60;;;11.10;99.90;;;;;;5056282;28;20221;-58
2023/01/06 03:37:16;;;;;;;5.00;2.47;;;10.90;99.90;;;;;;5055879;28;20731;-58
2023/01/06 03:39:53;;;;;;;3.83;2.30;;;10.90;99.90;;;;;;5055885;28;20206;-59
2023/01/06 03:45:27;;;;;;;4.30;2.10;;;10.90;99.90;;;;;;5055846;28;20756;-58
2023/01/06 03:48:01;;;;;;;3.30;2.10;;;10.80;99.90;;;;;;5056357;28;20194;-59
2023/01/06 03:50:34;;;;;;;2.17;1.93;;;10.80;99.90;;;;;;5056159;28;20611;-58
2023/01/06 03:53:16;;;;;;;2.77;2.07;;;10.80;99.90;;;;;;5055747;28;20210;-58
2023/01/06 03:55:46;;;;;;;4.93;2.03;;;10.90;99.90;;;;;;5055531;28;20221;-59
2023/01/06 03:58:13;;;;;;;3.07;2.10;;;10.80;99.90;;;;;;5055833;28;20205;-59
2023/01/06 04:00:41;;;;;;;3.27;2.40;;;10.60;99.90;;;;;;5055354;28;20634;-58
2023/01/06 04:03:11;;;;;;;7.53;2.60;;;10.50;99.90;;;;;;5055515;28;20630;-58
2023/01/06 04:05:38;;;;;;;3.80;2.33;;;10.40;99.90;;;;;;5055865;28;20665;-58
2023/01/06 04:08:06;;;;;;;4.67;2.43;;;10.30;99.90;;;;;;5055536;28;20259;-58
2023/01/06 04:10:33;;;;;;;3.93;2.00;;;10.10;99.90;;;;;;5055451;28;20218;-58
2023/01/06 04:12:59;;;;;;;3.30;2.13;;;10.00;99.90;;;;;;5055255;28;20209;-58
2023/01/06 04:15:28;;;;;;;3.40;2.10;;;9.90;99.90;;;;;;5055662;28;20575;-59
2023/01/06 04:17:55;;;;;;;3.80;2.23;;;9.80;99.90;;;;;;5055745;28;20216;-58
2023/01/06 04:20:24;;;;;;;3.97;2.37;;;9.70;99.90;;;;;;5055494;28;20571;-59
2023/01/06 04:22:52;;;;;;;3.40;2.33;;;9.60;99.90;;;;;;5056252;28;20217;-59
2023/01/06 04:25:20;;;;;;;4.60;2.30;;;9.50;99.90;;;;;;5056156;28;20658;-58
2023/01/06 04:27:47;;;;;;;4.57;2.50;;;9.50;99.90;;;;;;5055602;28;20222;-58
2023/01/06 04:30:14;;;;;;;3.73;2.60;;;9.50;99.90;;;;;;5055870;28;20594;-58
2023/01/06 04:32:41;;;;;;;4.87;2.77;;;9.50;99.90;;;;;;5055367;28;20205;-58
2023/01/06 04:35:08;;;;;;;3.77;2.73;;;9.40;99.90;;;;;;5054945;28;20237;-59
2023/01/06 04:37:35;;;;;;;4.60;3.20;;;9.50;99.90;;;;;;5054944;28;20212;-58
2023/01/06 04:40:02;;;;;;;6.47;3.67;;;9.50;99.90;;;;;;5053420;28;20673;-59
2023/01/06 04:43:02;;;;;;;3.70;2.73;;;9.60;99.90;;;;;;5054816;28;20202;-58
2023/01/06 04:45:18;;;;;;;5.40;2.80;;;9.70;99.90;;;;;;5054375;28;20233;-59
2023/01/06 04:47:44;;;;;;;3.07;2.43;;;9.80;99.90;;;;;;5054652;28;20259;-58
2023/01/06 04:50:11;;;;;;;3.37;2.47;;;9.80;99.90;;;;;;5054758;28;20201;-58
2023/01/06 04:52:38;;;;;;;3.47;2.40;;;9.90;99.90;;;;;;5054604;28;20231;-58
2023/01/06 04:55:05;;;;;;;5.17;2.43;;;9.90;99.90;;;;;;5055305;28;20222;-58
2023/01/06 04:57:33;;;;;;;4.00;2.20;;;10.00;99.90;;;;;;5054863;28;20264;-58
2023/01/06 05:00:00;;;;;;;5.87;2.57;;;10.00;99.90;;;;;;5054350;28;20721;-58
2023/01/06 05:02:26;;;;;;;6.40;2.90;;;10.20;99.90;;;;;;5054456;28;20283;-59
2023/01/06 05:04:53;;;;;;;3.83;2.40;;;10.30;99.90;;;;;;5054414;28;20233;-59
2023/01/06 05:07:20;;;;;;;4.23;2.60;;;10.40;99.90;;;;;;5055522;28;20792;-57
2023/01/06 05:09:46;;;;;;;4.07;2.60;;;10.50;99.90;;;;;;5055726;28;20217;-58
2023/01/06 05:12:13;;;;;;;5.40;2.90;;;10.50;99.90;;;;;;5054644;28;20228;-58
2023/01/06 05:14:41;;;;;;;2.90;2.10;;;10.40;99.90;;;;;;5054501;28;20236;-58
2023/01/06 05:17:08;;;;;;;2.90;2.20;;;10.50;99.90;;;;;;5054477;28;20228;-58
2023/01/06 05:19:34;;;;;;;4.03;2.20;;;10.60;99.90;;;;;;5054393;28;20231;-59
2023/01/06 05:22:01;;;;;;;4.50;2.00;;;10.70;99.90;;;;;;5054847;28;20263;-58
2023/01/06 05:24:28;;;;;;;2.30;1.90;;;10.80;99.90;;;;;;5056303;28;20221;-58
2023/01/06 05:26:54;;;;;;;3.60;2.10;;;10.90;99.90;;;;;;5055481;28;20577;-58
2023/01/06 05:29:21;;;;;;;5.30;2.20;;;10.90;99.90;;;;;;5055989;28;20212;-59
2023/01/06 05:31:49;;;;;;;3.50;2.40;;;10.80;99.90;;;;;;5056143;28;20210;-57
2023/01/06 05:34:16;;;;;;;5.90;2.07;;;10.70;99.90;;;;;;5052847;28;20300;-58
2023/01/06 05:36:43;;;;;;;2.60;1.93;;;10.70;99.90;;;;;;5053272;28;20233;-58
2023/01/06 05:39:09;;;;;;;2.87;1.97;;;10.70;99.90;;;;;;5053172;28;20216;-59
2023/01/06 05:41:36;;;;;;;3.43;2.07;;;10.80;99.90;;;;;;5052934;28;20202;-58
2023/01/06 05:44:03;;;;;;;3.97;2.47;;;10.80;99.90;;;;;;5052645;28;20612;-58
2023/01/06 05:46:30;;;;;;;5.37;2.40;;;10.60;99.90;;;;;;5052914;28;20255;-58
2023/01/06 05:48:59;;;;;;;2.90;2.37;;;10.60;99.90;;;;;;5052590;28;20213;-58
2023/01/06 05:51:26;;;;;;;2.80;2.33;;;10.70;99.90;;;;;;5052518;28;20202;-59
2023/01/06 05:53:52;;;;;;;3.67;2.10;;;10.70;99.90;;;;;;5052795;28;20230;-58
2023/01/06 05:56:21;;;;;;;2.63;1.70;;;10.60;99.90;;;;;;5052577;28;20233;-58
2023/01/06 05:58:49;;;;;;;1.90;1.70;;;10.50;99.90;;;;;;5052960;28;20232;-59
2023/01/06 06:01:18;;;;;;;2.20;1.80;;;10.60;99.90;;;;;;5052304;28;20263;-59
2023/01/06 06:03:44;;;;;;;3.73;1.93;;;10.60;99.90;;;;;;5053034;28;20228;-58
2023/01/06 06:06:13;;;;;;;4.10;2.13;;;10.60;99.90;;;;;;5053113;28;20216;-58
2023/01/06 06:08:39;;;;;;;3.70;2.20;;;10.60;99.90;;;;;;5053033;28;20205;-57
2023/01/06 06:11:07;;;;;;;3.23;2.40;;;10.60;99.90;;;;;;5052370;28;20681;-58
2023/01/06 06:13:35;;;;;;;2.73;2.43;;;10.60;99.90;;;;;;5051812;28;20229;-58
2023/01/06 06:16:06;;;;;;;4.17;2.63;;;10.70;99.90;;;;;;5052575;28;20229;-59
2023/01/06 06:18:33;;;;;;;3.97;2.33;;;10.80;99.90;;;;;;5053440;28;20217;-58
2023/01/06 06:21:02;;;;;;;3.83;2.40;;;10.90;99.90;;;;;;5053031;28;20201;-58
2023/01/06 06:23:31;;;;;;;3.43;2.20;;;11.00;99.90;;;;;;5052760;28;20581;-58
2023/01/06 06:25:58;;;;;;;3.30;2.20;;;10.80;99.90;;;;;;5052773;28;20213;-58
2023/01/06 06:28:24;;;;;;;3.00;2.10;;;10.80;99.90;;;;;;5052714;28;20621;-58
2023/01/06 06:30:51;;;;;;;3.67;2.03;;;10.70;99.90;;;;;;5053136;28;20205;-58
2023/01/06 06:33:18;;;;;;;3.10;2.20;;;10.80;99.90;;;;;;5052722;28;20206;-58
2023/01/06 06:35:45;;;;;;;3.87;2.50;;;11.00;99.90;;;;;;5052571;28;20206;-58
2023/01/06 06:38:11;;;;;;;2.53;2.00;;;11.10;99.90;;;;;;5054234;28;20201;-57
2023/01/06 06:40:43;;;;;;;3.43;1.90;;;11.20;99.90;;;;;;5053015;28;20232;-58
2023/01/06 06:43:10;;;;;;;3.23;2.17;;;11.20;99.90;;;;;;5052476;28;20726;-58
2023/01/06 06:45:37;;;;;;;2.50;1.77;;;11.20;99.90;;;;;;5052950;28;20279;-59
2023/01/06 06:48:04;;;;;;;2.20;1.67;;;11.20;99.90;;;;;;5052652;28;20614;-58
2023/01/06 06:50:31;;;;;;;2.30;1.87;;;11.30;99.90;;;;;;5052800;28;20209;-58
2023/01/06 06:52:57;;;;;;;3.20;2.07;;;11.30;99.90;;;;;;5052407;28;20212;-58
2023/01/06 06:55:24;;;;;;;3.00;2.10;;;11.40;99.90;;;;;;5052935;28;20701;-58
2023/01/06 06:57:52;;;;;;;3.23;2.50;;;11.40;99.90;;;;;;5053169;28;20230;-58
2023/01/06 07:00:19;;;;;;;3.53;2.97;;;11.50;99.90;;;;;;5052801;28;20212;-58
2023/01/06 07:02:48;;;;;;;7.33;4.90;;;11.50;99.90;;;;;;5053836;28;20224;-58
2023/01/06 07:05:15;;;;;;;6.27;5.00;;;11.50;99.90;;;;;;5056804;28;20276;-57
2023/01/06 07:07:41;;;;;;;4.73;3.47;;;11.50;99.90;;;;;;5056809;28;20201;-59
2023/01/06 07:10:12;;;;;;;2.57;2.37;;;11.50;99.90;;;;;;5056498;28;20216;-58
2023/01/06 07:12:38;;;;;;;4.43;2.10;;;11.40;99.90;;;;;;5056597;28;20665;-58
2023/01/06 07:15:08;;;;;;;3.53;2.90;;;11.30;99.90;;;;;;5056883;28;20523;-58
2023/01/06 07:17:35;;;;;;;3.53;2.33;;;11.40;99.90;;;;;;5056824;28;20234;-58
2023/01/06 07:20:01;;;;;;;2.87;2.30;;;11.40;99.90;;;;;;5056181;28;20206;-59
2023/01/06 07:22:28;;;;;;;4.63;2.70;;;11.40;99.90;;;;;;5056156;28;20313;-59
2023/01/06 07:24:55;;;;;;;3.10;1.93;;;11.40;99.90;;;;;;5056750;28;20225;-58
2023/01/06 07:27:21;;;;;;;2.80;2.20;;;11.40;99.90;;;;;;5057082;28;20205;-58
2023/01/06 07:29:48;;;;;;;2.03;1.60;;;11.40;99.90;;;;;;5056612;28;20210;-59
2023/01/06 07:32:16;;;;;;;2.33;1.73;;;11.40;99.90;;;;;;5056043;28;20212;-58
2023/01/06 07:34:43;;;;;;;2.37;1.97;;;11.40;99.90;;;;;;5056325;28;20236;-59
2023/01/06 07:37:10;;;;;;;3.47;2.40;;;11.50;99.90;;;;;;5056151;28;20609;-58
2023/01/06 07:39:36;;;;;;;5.50;2.73;;;11.50;99.90;;;;;;5055995;28;20681;-59
2023/01/06 07:42:03;;;;;;;3.10;2.10;;;11.40;99.90;;;;;;5055937;28;20214;-59
2023/01/06 07:44:30;;;;;;;2.93;2.00;;;11.60;99.90;;;;;;5056455;28;20247;-60
2023/01/06 07:46:57;;;;;;;2.80;1.97;;;11.80;99.90;;;;;;5056727;28;20670;-60
2023/01/06 07:49:25;;;;;;;3.07;2.00;;;12.00;99.90;;;;;;5056145;28;20214;-60
2023/01/06 07:51:51;;;;;;;3.70;2.10;;;12.10;99.90;;;;;;5056917;28;20206;-60
2023/01/06 07:54:18;;;;;;;3.73;1.90;;;12.10;99.90;;;;;;5056686;28;20237;-60
2023/01/06 07:56:45;;;;;;;2.60;1.80;;;12.30;99.90;;;;;;5056050;28;20697;-60
2023/01/06 07:59:11;;;;;;;3.40;2.90;;;12.30;99.90;;;;;;5057074;28;20205;-60
2023/01/06 08:01:38;;;;;;;4.00;2.20;;;12.30;99.90;;;;;;5056380;28;20212;-60
2023/01/06 08:04:05;;;;;;;4.03;3.10;;;12.40;99.90;;;;;;5056440;28;20599;-60
2023/01/06 08:06:33;;;;;;;2.53;2.03;;;12.40;99.90;;;;;;5056667;28;20205;-60
2023/01/06 08:09:01;;;;;;;2.57;2.00;;;12.40;99.90;;;;;;5057103;28;20211;-60
2023/01/06 08:11:28;;;;;;;2.97;2.30;;;12.50;99.90;;;;;;5057875;28;20201;-58
2023/01/06 08:13:54;;;;;;;4.37;3.00;;;12.50;99.90;;;;;;5057298;28;20727;-60
2023/01/06 08:16:21;;;;;;;2.03;1.80;;;12.40;99.90;;;;;;5056395;28;20604;-60
2023/01/06 08:18:48;;;;;;;3.50;1.60;;;12.30;99.90;;;;;;5056837;28;20217;-58
2023/01/06 08:21:15;;;;;;;1.27;1.00;;;12.20;99.90;;;;;;5055911;28;20220;-57
2023/01/06 08:23:43;;;;;;;1.53;0.97;;;11.90;99.90;;;;;;5055194;28;20226;-62
2023/01/06 08:26:12;;;;;;;3.60;1.13;;;11.70;99.90;;;;;;5054538;28;20206;-59
2023/01/06 08:28:39;;;;;;;1.60;1.00;;;11.70;99.90;;;;;;5054459;28;20202;-61
2023/01/06 08:31:08;;;;;;;1.97;0.70;;;11.70;99.90;;;;;;5054822;28;20288;-58
2023/01/06 08:33:35;;;;;;;0.90;0.87;;;11.60;99.90;;;;;;5054751;28;20225;-58
2023/01/06 08:36:05;;;;;;;2.03;1.00;;;11.70;99.90;;;;;;5054687;28;20205;-58
2023/01/06 08:38:33;;;;;;;3.00;1.60;;;11.80;99.90;;;;;;5054828;28;20236;-61
2023/01/06 08:41:02;;;;;;;1.83;1.20;;;11.90;99.90;;;;;;5055209;28;20835;-61
2023/01/06 08:43:30;;;;;;;4.20;3.40;;;12.10;99.90;;;;;;5054531;28;20202;-58
2023/01/06 08:45:59;;;;;;;3.60;1.60;;;12.20;99.90;;;;;;5054462;28;20210;-58
2023/01/06 08:48:26;;;;;;;1.93;1.20;;;12.20;99.90;;;;;;5054763;28;20209;-57
2023/01/06 08:50:53;;;;;;;7.27;6.23;;;12.30;99.90;;;;;;5054170;28;20217;-58
2023/01/06 08:53:20;;;;;;;2.70;1.63;;;12.40;99.90;;;;;;5053426;28;20205;-58
2023/01/06 08:55:47;;;;;;;3.30;1.20;;;12.50;99.90;;;;;;5054340;28;20213;-59
2023/01/06 08:58:15;;;;;;;1.90;1.27;;;12.70;99.90;;;;;;5053710;28;20222;-58
2023/01/06 09:00:42;;;;;;;2.30;1.20;;;12.70;99.90;;;;;;5053886;28;20681;-58
2023/01/06 09:03:09;;;;;;;1.63;0.80;;;12.80;99.90;;;;;;5053602;28;20217;-58
2023/01/06 09:05:36;;;;;;;1.50;0.87;;;12.80;99.90;;;;;;5053552;28;20228;-57
2023/01/06 09:08:03;;;;;;;1.23;0.70;;;12.90;99.90;;;;;;5053533;28;20620;-58
2023/01/06 09:10:30;;;;;;;1.93;0.90;;;12.90;99.90;;;;;;5053552;28;20733;-58
2023/01/06 09:12:57;;;;;;;2.97;0.90;;;13.00;99.90;;;;;;5053893;28;20206;-58
2023/01/06 09:15:25;;;;;;;1.10;0.70;;;13.00;99.90;;;;;;5053755;28;20283;-58
2023/01/06 09:17:51;;;;;;;1.60;0.60;;;13.20;99.90;;;;;;5053656;28;20236;-58
2023/01/06 09:20:18;;;;;;;1.43;0.80;;;13.20;99.90;;;;;;5053942;28;20516;-58
2023/01/06 09:22:45;;;;;;;0.63;0.60;;;13.30;99.90;;;;;;5053353;28;20221;-58
2023/01/06 09:25:12;;;;;;;0.60;0.50;;;13.30;99.90;;;;;;5052937;28;20267;-64
2023/01/06 09:27:39;;;;;;;2.20;0.80;;;13.40;99.90;;;;;;5053183;28;20197;-58
2023/01/06 09:30:08;;;;;;;2.13;0.97;;;13.50;99.90;;;;;;5053302;28;20209;-58
2023/01/06 09:32:36;;;;;;;3.23;1.80;;;13.60;99.90;;;;;;5052936;28;20209;-58
2023/01/06 09:35:03;;;;;;;2.13;0.90;;;13.60;99.90;;;;;;5053071;28;20233;-58
2023/01/06 09:37:29;;;;;;;1.83;0.93;;;13.70;99.90;;;;;;5052957;28;20728;-58
2023/01/06 09:39:56;;;;;;;1.07;0.77;;;13.80;99.90;;;;;;5053168;28;20221;-58
2023/01/06 09:42:42;;;;;;;1.37;0.80;;;13.90;99.90;;;;;;5053242;28;20296;-58
2023/01/06 09:45:16;;;;;;;6.30;4.80;;;13.90;99.90;;;;;;5052638;28;20237;-59
2023/01/06 09:47:48;;;;;;;1.77;0.97;;;13.80;99.90;;;;;;5053792;28;20212;-58
2023/01/06 09:50:23;;;;;;;2.07;1.07;;;13.90;99.90;;;;;;5053591;28;20205;-60
2023/01/06 09:52:55;;;;;;;2.20;0.67;;;14.00;99.90;;;;;;5053279;28;20193;-59
2023/01/06 09:55:30;;;;;;;1.50;0.60;;;14.10;99.90;;;;;;5053207;28;20239;-58
2023/01/06 09:57:59;;;;;;;2.00;0.80;;;14.20;99.90;;;;;;5053326;28;20229;-58
2023/01/06 10:00:35;;;;;;;2.50;0.70;;;14.30;99.90;;;;;;5053025;28;20201;-58
2023/01/06 10:03:04;;;;;;;1.07;0.50;;;14.40;99.90;;;;;;5053136;28;20208;-58
2023/01/06 10:05:40;;;;;;;1.00;0.60;;;14.70;99.90;;;;;;5053453;28;20248;-58
2023/01/06 10:08:17;;;;;;;0.87;0.60;;;14.80;99.90;;;;;;5053091;28;20205;-57
2023/01/06 10:10:53;;;;;;;0.97;0.70;;;14.80;99.90;;;;;;5053022;28;20217;-58
2023/01/06 10:13:34;;;;;;;2.70;1.93;;;14.80;99.90;;;;;;5052590;28;20675;-57
2023/01/06 10:16:09;;;;;;;1.70;0.80;;;14.70;99.90;;;;;;5052998;28;20263;-57
2023/01/06 10:18:46;;;;;;;2.03;0.90;;;14.60;99.90;;;;;;5052825;28;20331;-56
2023/01/06 10:21:21;;;;;;;3.20;1.20;;;14.60;99.90;;;;;;5052999;28;20211;-57
2023/01/06 10:24:02;;;;;;;0.50;0.50;;;14.50;99.90;;;;;;5052523;28;20229;-57
2023/01/06 10:26:31;;;;;;;0.80;0.70;;;14.40;99.90;;;;;;5052569;28;20209;-57
2023/01/06 10:29:05;;;;;;;1.37;0.50;;;14.40;99.90;;;;;;5052718;28;20197;-57
2023/01/06 10:31:36;;;;;;;0.73;0.40;;;14.60;99.90;;;;;;5052119;28;20200;-57
2023/01/06 10:34:12;;;;;;;3.10;0.70;;;14.70;99.90;;;;;;5051721;28;20229;-57
2023/01/06 10:36:42;;;;;;;1.80;0.60;;;14.80;99.90;;;;;;5052628;28;20205;-57
2023/01/06 10:39:15;;;;;;;0.70;0.40;;;14.90;99.90;;;;;;5056192;28;20225;-56
2023/01/06 10:41:50;;;;;;;1.03;0.37;;;15.10;99.90;;;;;;5056655;28;20209;-57
2023/01/06 10:44:18;;;;;;;0.70;0.40;;;15.00;99.90;;;;;;5056556;28;20232;-57
2023/01/06 10:46:47;;;;;;;0.97;0.40;;;14.90;99.90;;;;;;5056418;28;20209;-57
2023/01/06 10:49:17;;;;;;;0.63;0.37;;;14.90;99.90;;;;;;5056876;28;20220;-57
2023/01/06 10:51:51;;;;;;;0.73;0.43;;;15.00;99.90;;;;;;5056711;28;20217;-57
2023/01/06 10:54:22;;;;;;;0.40;0.40;;;15.10;99.90;;;;;;5056231;28;20233;-57
2023/01/06 10:56:53;;;;;;;0.93;0.50;;;15.10;99.90;;;;;;5056338;28;20216;-57
2023/01/06 10:59:20;;;;;;;0.80;0.40;;;15.30;99.90;;;;;;5056019;28;20225;-57
2023/01/06 11:01:50;;;;;;;0.97;0.40;;;15.40;99.90;;;;;;5056542;28;20206;-58
2023/01/06 11:04:20;;;;;;;2.58;0.20;;;15.50;99.90;;;;;;5056279;28;20233;-57
2023/01/06 11:06:50;;;;;;;0.20;0.20;;;15.50;99.90;;;;;;5055823;28;20205;-57
2023/01/06 11:09:28;;;;;;;2.50;1.30;;;15.50;99.90;;;;;;5055992;28;20201;-57
2023/01/06 11:11:56;;;;;;;0.73;0.50;;;15.40;99.90;;;;;;5055661;28;20279;-57
2023/01/06 11:14:28;;;;;;;2.50;1.03;;;15.40;99.90;;;;;;5055615;28;20726;-57
2023/01/06 11:16:57;;;;;;;1.47;0.50;;;15.40;99.90;;;;;;5056136;28;20532;-57
2023/01/06 11:19:35;;;;;;;0.83;0.40;;;15.50;99.90;;;;;;5055722;28;20325;-57
2023/01/06 11:22:02;;;;;;;14.40;10.20;;;15.40;99.90;;;;;;5056195;28;20670;-56
2023/01/06 11:24:29;;;;;;;2.77;1.37;;;15.20;99.90;;;;;;5055578;28;20229;-57
2023/01/06 11:26:58;;;;;;;0.80;0.60;;;14.90;99.90;;;;;;5055823;28;20207;-57
2023/01/06 11:29:27;;;;;;;0.50;0.47;;;14.80;99.90;;;;;;5055877;28;20582;-57
2023/01/06 11:31:55;;;;;;;0.90;0.73;;;14.90;99.90;;;;;;5055547;28;20217;-57
2023/01/06 11:34:23;;;;;;;1.03;0.57;;;14.80;99.90;;;;;;5055630;28;20221;-57
2023/01/06 11:36:52;;;;;;;0.70;0.60;;;14.60;99.90;;;;;;5055021;28;20695;-57
2023/01/06 11:39:25;;;;;;;1.27;0.70;;;14.70;99.90;;;;;;5055795;28;20225;-57
2023/01/06 11:41:54;;;;;;;1.50;0.70;;;14.80;99.90;;;;;;5055842;28;20216;-57
2023/01/06 11:44:29;;;;;;;1.40;0.87;;;15.00;99.90;;;;;;5055140;28;20233;-57
2023/01/06 11:47:00;;;;;;;1.77;0.53;;;15.10;99.90;;;;;;5055386;28;20479;-57
2023/01/06 11:49:29;;;;;;;0.75;0.60;;;15.10;99.90;;;;;;5054886;28;20206;-57
2023/01/06 11:52:02;;;;;;;5.30;4.03;;;15.10;99.90;;;;;;5055176;28;20209;-58
2023/01/06 11:54:34;;;;;;;0.73;0.52;;;15.20;99.90;;;;;;5055514;28;20264;-57
2023/01/06 11:57:07;;;;;;;0.88;0.40;;;15.30;99.90;;;;;;5055387;28;20304;-56
2023/01/06 11:59:51;;;;;;;1.85;1.50;;;15.20;99.90;;;;;;5055403;28;20236;-57
2023/01/06 12:02:22;;;;;;;1.70;0.52;;;15.30;99.90;;;;;;5055429;28;20209;-58
2023/01/06 12:04:52;;;;;;;0.88;0.50;;;15.40;99.90;;;;;;5054787;28;20229;-58
2023/01/06 12:07:27;;;;;;;0.60;0.43;;;15.50;99.90;;;;;;5055246;28;20681;-58
2023/01/06 12:09:56;;;;;;;2.40;2.10;;;15.50;99.90;;;;;;5054919;28;20216;-58
2023/01/06 12:12:26;;;;;;;1.63;0.70;;;15.60;99.90;;;;;;5054456;28;20213;-58
2023/01/06 12:14:54;;;;;;;1.40;1.10;;;15.70;99.90;;;;;;5054728;28;20226;-58
2023/01/06 12:17:34;;;;;;;1.05;0.95;;;15.60;99.90;;;;;;5052713;28;20212;-57
2023/01/06 12:20:05;;;;;;;1.00;0.50;;;15.50;99.90;;;;;;5074051;28;20208;-57
2023/01/06 12:22:38;;;;;;;2.83;1.77;;;15.50;99.90;;;;;;5073134;28;20283;-56
2023/01/06 12:25:10;;;;;;;4.22;3.13;;;15.40;99.90;;;;;;5073959;28;20712;-57
2023/01/06 12:27:42;;;;;;;2.10;1.67;;;15.30;99.90;;;;;;5073710;28;20639;-56
2023/01/06 12:30:16;;;;;;;1.30;0.70;;;15.20;99.90;;;;;;5073715;28;20267;-57
2023/01/06 12:32:48;;;;;;;1.83;0.90;;;15.00;99.90;;;;;;5073175;28;20211;-59
2023/01/06 12:35:18;;;;;;;0.50;0.50;;;15.00;99.90;;;;;;5073622;28;20327;-60
2023/01/06 12:37:51;;;;;;;0.57;0.50;;;14.90;99.90;;;;;;5072972;28;20212;-60
2023/01/06 12:40:25;;;;;;;2.10;0.70;;;14.90;99.90;;;;;;5073443;28;20211;-59
2023/01/06 12:42:57;;;;;;;0.40;0.40;;;15.00;99.90;;;;;;5072894;28;20693;-60
2023/01/06 12:45:32;;;;;;;0.87;0.60;;;14.90;99.90;;;;;;5069140;28;20236;-61
2023/01/06 12:48:01;;;;;;;0.77;0.57;;;14.90;99.90;;;;;;5053889;28;20205;-61
2023/01/06 12:50:35;;;;;;;0.80;0.60;;;15.10;99.90;;;;;;5053389;28;20201;-62
2023/01/06 12:53:17;;;;;;;1.37;0.60;;;15.10;99.90;;;;;;5052904;28;20744;-60
2023/01/06 12:55:58;;;;;;;1.80;0.50;;;15.30;99.90;;;;;;5053471;28;20300;-60
2023/01/06 12:58:32;;;;;;;1.17;0.55;;;15.40;99.90;;;;;;5053481;28;20228;-60
2023/01/06 13:01:02;;;;;;;2.30;1.40;;;15.40;99.90;;;;;;5052490;28;20209;-60
2023/01/06 13:04:03;;;;;;;1.20;0.90;;;15.40;99.90;;;;;;5052272;28;20587;-60
2023/01/06 13:06:48;;;;;;;1.58;0.70;;;15.50;99.90;;;;;;5053062;28;20617;-64
2023/01/06 13:09:30;;;;;;;23.33;18.90;;;15.40;99.90;;;;;;5053157;28;20214;-60
2023/01/06 13:12:09;;;;;;;1.58;1.45;;;15.30;99.90;;;;;;5054698;28;20576;-59